Terminal Aerodrome Forecast
Issued by NWS Tiyan, Guam

Home | Current Version | Previous Version | Text Only | Print | Product List | Glossary On
Versions: 1 2 3 4 5 6 7 8 9 10 11 12 13 14 15 16 17 18 19 20 21 22 23 24 25
000
FTPQ31 PGUM 070521
TAFGUM
TAF
PGUM 070521Z 0706/0812 12010KT P6SM VCSH FEW025 SCT060
      TEMPO 0706/0708 12010G20KT 3SM SHRA SCT010 SCT014 BKN020
     FM070900 10008KT P6SM FEW025=

USA.gov is the U.S. government's official web portal to all federal, state and local government web resources and services.